Time;durP1;ratioP1;P1;durP2;ratioP2;P2;SDS_P1;SDS_P2;PMS_P1;PMS_P2;Temp;Humidity;BMP_temperature;BMP_pressure;BME280_temperature;BME280_humidity;BME280_pressure;Samples;Min_cycle;Max_cycle;Signal;HPM_P1;HPM_P2
2023/07/20 07:01:31;;;;;;;0.10;0.10;;;23.20;99.90;26.70;101526.00;;;;6248465;22;1429348;-67
2023/07/20 07:03:56;;;;;;;0.10;0.10;;;23.50;99.90;27.00;101525.00;;;;6282123;22;20171;-67
2023/07/20 07:06:32;;;;;;;0.10;0.10;;;23.60;99.90;27.10;101516.00;;;;6309254;22;20144;-66
2023/07/20 07:09:04;;;;;;;0.10;0.10;;;23.90;99.90;24.00;101511.00;;;;6282348;22;20243;-66
2023/07/20 07:11:30;;;;;;;0.10;0.10;;;22.80;99.90;25.90;101476.00;;;;6308233;22;20591;-65
2023/07/20 07:13:56;;;;;;;0.20;0.20;;;22.80;99.90;27.20;101500.00;;;;6309564;22;20148;-66
2023/07/20 07:16:30;;;;;;;0.10;0.10;;;23.70;99.90;26.20;101504.00;;;;6309876;22;20445;-66
2023/07/20 07:18:55;;;;;;;0.10;0.10;;;23.80;99.90;26.90;101508.00;;;;6309309;22;20141;-67
2023/07/20 07:21:21;;;;;;;0.10;0.10;;;24.40;99.90;27.70;101507.00;;;;6282590;22;20155;-67
2023/07/20 07:23:53;;;;;;;0.20;0.20;;;24.70;99.90;29.00;101505.00;;;;6307823;22;20251;-67
2023/07/20 07:26:21;;;;;;;0.10;0.10;;;25.70;99.90;29.80;101499.00;;;;6309676;22;20564;-68
2023/07/20 07:28:50;;;;;;;0.10;0.10;;;26.10;99.90;26.70;101533.00;;;;6308994;22;20143;-67
2023/07/20 07:31:18;;;;;;;0.10;0.10;;;25.50;99.90;26.90;101529.00;;;;6256194;22;20156;-68
2023/07/20 07:33:47;;;;;;;0.10;0.10;;;24.60;99.90;25.70;101530.00;;;;6309022;22;20149;-65
2023/07/20 07:36:12;;;;;;;0.10;0.10;;;23.50;99.90;26.60;101532.00;;;;6308197;22;20223;-65
2023/07/20 07:38:44;;;;;;;0.10;0.10;;;23.70;99.90;26.00;101527.00;;;;6309725;22;20184;-71
2023/07/20 07:41:18;;;;;;;0.10;0.10;;;23.40;99.90;26.50;101526.00;;;;6281157;22;20160;-70
2023/07/20 07:43:47;;;;;;;0.10;0.10;;;23.60;99.90;28.20;101512.00;;;;6257616;22;20211;-68
2023/07/20 07:46:16;;;;;;;0.20;0.20;;;24.50;99.90;28.90;101485.00;;;;6282220;22;20176;-65
2023/07/20 07:48:42;;;;;;;0.10;0.10;;;25.80;99.90;30.10;101462.00;;;;6309260;22;20219;-65
2023/07/20 07:51:08;;;;;;;0.10;0.10;;;27.00;99.90;30.60;101478.00;;;;6308713;22;20137;-66
2023/07/20 07:53:36;;;;;;;0.10;0.10;;;27.20;99.90;29.60;101492.00;;;;6281102;22;20144;-66
2023/07/20 07:56:08;;;;;;;0.10;0.10;;;26.70;99.90;29.40;101495.00;;;;6308598;22;20576;-65
2023/07/20 07:58:34;;;;;;;0.10;0.10;;;26.50;99.90;30.80;101465.00;;;;6308154;22;20140;-65
2023/07/20 08:01:00;;;;;;;0.10;0.10;;;27.00;99.90;31.20;101462.00;;;;6307984;22;20168;-65
2023/07/20 08:03:26;;;;;;;0.10;0.10;;;27.50;99.90;30.70;101469.00;;;;6307957;22;20164;-66
2023/07/20 08:05:59;;;;;;;0.10;0.10;;;27.30;99.90;30.80;101465.00;;;;6308670;22;20184;-66
2023/07/20 08:08:25;;;;;;;0.10;0.10;;;27.30;99.90;29.40;101488.00;;;;6282378;22;20137;-65
2023/07/20 08:10:58;;;;;;;0.40;0.40;;;26.40;99.90;26.70;101544.00;;;;6308994;22;20164;-65
2023/07/20 08:13:30;;;;;;;0.10;0.10;;;25.20;99.90;25.10;101545.00;;;;6307654;22;20570;-65
2023/07/20 08:15:58;;;;;;;0.10;0.10;;;23.80;99.90;27.30;101517.00;;;;6308231;22;20138;-65
2023/07/20 08:18:27;;;;;;;0.10;0.10;;;23.80;99.90;28.70;101524.00;;;;6308930;22;20517;-65
2023/07/20 08:20:55;;;;;;;0.30;0.30;;;24.80;99.90;28.70;101494.00;;;;6308548;22;20207;-66
2023/07/20 08:23:24;;;;;;;0.10;0.10;;;25.30;99.90;29.30;101508.00;;;;6307478;22;20172;-67
2023/07/20 08:26:01;;;;;;;0.10;0.10;;;26.00;99.90;28.80;101514.00;;;;6308618;22;20513;-66
2023/07/20 08:28:34;;;;;;;0.10;0.10;;;25.90;99.90;28.80;101505.00;;;;6281357;22;20512;-66
2023/07/20 08:31:17;;;;;;;0.10;0.10;;;25.70;99.90;29.20;101494.00;;;;6281591;22;20139;-66
2023/07/20 08:33:56;;;;;;;0.10;0.10;;;25.80;99.90;27.80;101529.00;;;;6281680;22;20161;-66
2023/07/20 08:36:31;;;;;;;0.10;0.10;;;25.50;99.90;28.40;101523.00;;;;6308594;22;20140;-66
2023/07/20 08:39:03;;;;;;;0.10;0.10;;;25.20;99.90;30.20;101494.00;;;;6308629;22;20140;-66
2023/07/20 08:41:39;;;;;;;0.10;0.10;;;26.20;99.90;29.70;101483.00;;;;6308314;22;20585;-66
2023/07/20 08:44:15;;;;;;;0.10;0.10;;;26.90;99.90;31.40;101471.00;;;;6282304;22;20140;-66
2023/07/20 08:46:51;;;;;;;0.10;0.10;;;27.90;99.90;32.90;101452.00;;;;6308305;22;20184;-66
2023/07/20 08:49:31;;;;;;;0.30;0.30;;;28.90;99.90;31.10;101471.00;;;;6281375;22;20591;-66
2023/07/20 08:52:03;;;;;;;0.10;0.10;;;27.90;99.90;30.60;101490.00;;;;6281242;22;20149;-66
2023/07/20 08:54:38;;;;;;;0.10;0.10;;;27.70;99.90;28.20;101525.00;;;;6281698;22;20164;-66
2023/07/20 08:57:08;;;;;;;0.10;0.10;;;26.40;99.90;27.50;101547.00;;;;6281094;22;20163;-66
2023/07/20 08:59:40;;;;;;;0.10;0.10;;;25.70;99.90;30.60;101504.00;;;;6308257;22;20164;-65
2023/07/20 09:02:20;;;;;;;0.10;0.10;;;26.50;99.90;31.20;101475.00;;;;6280641;22;20164;-65
2023/07/20 09:04:55;;;;;;;0.10;0.10;;;27.50;99.90;28.00;101525.00;;;;6281549;22;20198;-65
2023/07/20 09:07:24;;;;;;;0.10;0.10;;;25.70;99.90;29.50;101508.00;;;;6280914;22;20198;-65
2023/07/20 09:09:50;;;;;;;0.10;0.10;;;26.70;99.90;31.20;101477.00;;;;6280485;22;20522;-65
2023/07/20 09:12:16;;;;;;;0.10;0.10;;;27.30;99.90;33.40;101448.00;;;;6280380;22;20161;-66
2023/07/20 09:14:45;;;;;;;0.10;0.10;;;29.10;99.90;29.00;101567.00;;;;6307971;22;20149;-66
2023/07/20 09:17:19;;;;;;;0.03;0.03;;;27.80;99.90;31.70;101537.00;;;;6280402;22;20203;-65
2023/07/20 09:19:53;;;;;;;0.10;0.10;;;27.90;99.90;31.40;101565.00;;;;6306691;22;20139;-66
2023/07/20 09:22:30;;;;;;;0.10;0.10;;;28.30;99.90;28.70;101600.00;;;;6307676;22;20243;-65
2023/07/20 09:24:58;;;;;;;0.10;0.10;;;27.20;99.90;30.40;101550.00;;;;6308161;22;20144;-65
2023/07/20 09:27:46;;;;;;;0.10;0.10;;;26.80;99.90;29.60;101581.00;;;;6280362;22;20231;-67
2023/07/20 09:30:17;;;;;;;0.10;0.10;;;26.70;99.90;30.40;101580.00;;;;6280569;22;20148;-64
2023/07/20 09:32:58;;;;;;;0.10;0.10;;;27.00;99.90;30.80;101554.00;;;;6280859;22;20493;-63
2023/07/20 09:35:29;;;;;;;0.05;0.05;;;27.40;99.90;30.30;101557.00;;;;6307232;22;20136;-67
2023/07/20 09:38:02;;;;;;;0.10;0.10;;;27.00;99.90;27.10;101597.00;;;;6280299;22;20155;-66
2023/07/20 09:40:40;;;;;;;0.10;0.10;;;25.00;99.90;28.50;101585.00;;;;6254108;22;20217;-67
2023/07/20 09:43:14;;;;;;;0.10;0.10;;;25.20;99.90;29.40;101562.00;;;;6281541;22;20494;-67
2023/07/20 09:45:58;;;;;;;0.10;0.10;;;25.60;99.90;29.30;101563.00;;;;6255462;22;20160;-65
2023/07/20 09:48:30;;;;;;;0.10;0.10;;;26.00;99.90;29.90;101562.00;;;;6254487;22;20171;-67
2023/07/20 09:51:02;;;;;;;0.10;0.10;;;26.20;99.90;29.60;101568.00;;;;6281026;22;20140;-66
2023/07/20 09:53:40;;;;;;;0.10;0.10;;;26.40;99.90;30.60;101550.00;;;;6280918;22;20149;-67
2023/07/20 09:56:07;;;;;;;0.10;0.10;;;27.00;99.90;28.00;101569.00;;;;6281034;22;20178;-64
2023/07/20 09:58:37;;;;;;;0.10;0.10;;;26.00;99.90;25.60;101583.00;;;;6279941;22;20145;-66
2023/07/20 10:01:17;;;;;;;0.10;0.10;;;24.60;99.90;28.90;101549.00;;;;6249717;22;20200;-65
2023/07/20 10:03:46;;;;;;;0.10;0.10;;;25.10;99.90;28.10;101549.00;;;;6249524;22;20188;-69
2023/07/20 10:06:23;;;;;;;0.40;0.40;;;25.00;99.90;27.80;101564.00;;;;6223529;22;20302;-67
2023/07/20 10:08:58;;;;;;;0.30;0.30;;;25.10;99.90;26.30;101565.00;;;;6276091;22;20137;-65
2023/07/20 10:11:30;;;;;;;0.10;0.10;;;24.00;99.90;28.80;101551.00;;;;6248470;22;20239;-64
2023/07/20 10:13:59;;;;;;;1.00;1.00;;;25.10;99.90;30.50;101537.00;;;;6276476;22;20141;-67
2023/07/20 10:16:39;;;;;;;0.17;0.17;;;26.60;99.90;25.80;101584.00;;;;6223756;22;20199;-67
2023/07/20 10:19:24;;;;;;;0.10;0.10;;;25.00;99.90;28.00;101557.00;;;;6250422;22;20137;-65
2023/07/20 10:33:26;;;;;;;0.22;0.22;;;25.60;99.90;28.80;101503.00;;;;5169358;27;20491;-67
2023/07/20 10:35:57;;;;;;;0.10;0.10;;;25.70;99.90;28.00;101504.00;;;;5130266;27;20187;-67
2023/07/20 10:38:56;;;;;;;0.10;0.10;;;25.70;99.90;30.30;101510.00;;;;5137072;27;20206;-64
2023/07/20 10:41:40;;;;;;;0.20;0.20;;;26.50;99.90;26.80;101540.00;;;;5131559;27;20178;-68
2023/07/20 10:44:51;;;;;;;0.10;0.10;;;25.70;99.90;26.50;101541.00;;;;5129260;28;20563;-70
2023/07/20 10:48:03;;;;;;;0.10;0.10;;;25.30;99.90;27.00;101503.00;;;;5129120;27;20194;-68
2023/07/20 10:51:14;;;;;;;0.10;0.10;;;24.60;99.90;27.30;101527.00;;;;5118315;28;20198;-67
2023/07/20 10:54:20;;;;;;;0.10;0.10;;;24.80;99.90;29.50;101502.00;;;;5111404;27;20296;-66
2023/07/20 10:57:24;;;;;;;0.10;0.10;;;25.60;99.90;31.00;101495.00;;;;5129953;27;20195;-66
2023/07/20 11:00:30;;;;;;;0.10;0.10;;;26.80;99.90;31.70;101508.00;;;;5124932;27;20210;-66
2023/07/20 11:03:44;;;;;;;0.10;0.10;;;27.70;99.90;30.60;101521.00;;;;5128139;27;20657;-66
2023/07/20 11:06:25;;;;;;;0.50;0.50;;;27.70;99.90;26.40;101534.00;;;;5113985;28;20191;-66
2023/07/20 11:09:03;;;;;;;0.20;0.20;;;25.30;99.90;27.90;101521.00;;;;5140978;27;20238;-66
2023/07/20 11:12:15;;;;;;;0.30;0.30;;;25.30;99.90;30.50;101507.00;;;;5143753;27;20210;-66
2023/07/20 11:15:19;;;;;;;0.10;0.10;;;26.30;99.90;30.40;101518.00;;;;5123566;27;20183;-67
2023/07/20 11:18:38;;;;;;;0.10;0.10;;;27.40;99.90;29.90;101506.00;;;;5112331;27;20175;-67
2023/07/20 11:21:43;;;;;;;0.10;0.10;;;27.50;99.90;28.60;101531.00;;;;5114930;28;20182;-67
2023/07/20 11:24:35;;;;;;;0.10;0.10;;;26.20;99.90;25.60;101516.00;;;;5132160;27;20198;-66
2023/07/20 11:28:01;;;;;;;1.35;1.27;;;24.10;99.90;26.90;101516.00;;;;5100777;27;20195;-66
2023/07/20 11:31:16;;;;;;;0.10;0.10;;;23.50;99.90;28.70;101503.00;;;;5139383;27;20203;-66
2023/07/20 11:34:05;;;;;;;0.20;0.20;;;24.40;99.90;28.70;101501.00;;;;5124392;28;20187;-66
2023/07/20 11:36:36;;;;;;;0.45;0.45;;;25.70;99.90;26.40;101488.00;;;;5115805;27;20179;-66
2023/07/20 11:39:28;;;;;;;0.10;0.10;;;24.80;99.90;28.40;101494.00;;;;5129051;28;20217;-66
2023/07/20 11:42:27;;;;;;;0.10;0.10;;;24.90;99.90;28.80;101491.00;;;;5129625;27;20215;-66
2023/07/20 11:45:06;;;;;;;1.83;1.73;;;25.40;99.90;26.80;101504.00;;;;5101453;27;20184;-66
2023/07/20 11:47:41;;;;;;;0.13;0.13;;;24.70;99.90;27.40;101485.00;;;;5114283;27;20574;-66
2023/07/20 11:50:13;;;;;;;0.95;0.95;;;24.40;99.90;25.40;101514.00;;;;5112060;28;20646;-66
2023/07/20 11:52:49;;;;;;;0.30;0.30;;;23.40;99.90;24.80;101517.00;;;;5099804;27;20206;-66
2023/07/20 11:55:47;;;;;;;0.20;0.20;;;23.00;99.90;26.00;101491.00;;;;5083490;28;20652;-66
2023/07/20 11:58:54;;;;;;;0.35;0.35;;;23.00;99.90;25.90;101485.00;;;;5087716;27;20187;-66
2023/07/20 12:01:43;;;;;;;0.10;0.10;;;23.30;99.90;26.80;101472.00;;;;5108573;28;20713;-66
2023/07/20 12:04:55;;;;;;;0.30;0.30;;;23.60;99.90;26.20;101456.00;;;;5103248;27;20287;-66
2023/07/20 12:07:58;;;;;;;0.88;0.82;;;23.50;99.90;25.00;101484.00;;;;5095081;28;20180;-65
2023/07/20 12:11:15;;;;;;;0.38;0.38;;;23.10;99.90;24.70;101472.00;;;;5120010;27;20187;-65
2023/07/20 12:14:10;;;;;;;1.35;1.25;;;22.50;99.90;25.00;101461.00;;;;5110632;27;20555;-66
2023/07/20 12:17:07;;;;;;;1.50;1.50;;;22.50;99.90;27.10;101434.00;;;;5098117;28;20184;-66
2023/07/20 12:20:02;;;;;;;0.10;0.10;;;23.20;99.90;26.80;101452.00;;;;5097167;28;20194;-66
2023/07/20 12:23:11;;;;;;;0.13;0.13;;;23.60;99.90;28.40;101445.00;;;;5102512;28;20184;-66
2023/07/20 12:26:03;;;;;;;0.63;0.63;;;24.40;99.90;28.60;101456.00;;;;5110375;28;20642;-66
2023/07/20 12:28:54;;;;;;;0.47;0.47;;;25.00;99.90;26.10;101477.00;;;;5130541;27;20228;-66
2023/07/20 12:32:00;;;;;;;0.30;0.30;;;24.20;99.90;25.60;101458.00;;;;5108939;27;20616;-66
2023/07/20 12:35:00;;;;;;;0.10;0.10;;;23.30;99.90;27.10;101447.00;;;;5116458;27;20179;-66
2023/07/20 12:38:08;;;;;;;0.17;0.17;;;23.50;99.90;27.30;101457.00;;;;5095205;28;20196;-66
2023/07/20 12:41:03;;;;;;;0.28;0.28;;;23.70;99.90;25.00;101487.00;;;;5116653;27;20200;-66
2023/07/20 12:43:53;;;;;;;0.43;0.43;;;23.00;99.90;24.10;101443.00;;;;5088731;28;20199;-66
2023/07/20 12:46:46;;;;;;;0.47;0.47;;;22.20;99.90;26.50;101441.00;;;;5015562;28;20209;-66
2023/07/20 12:49:34;;;;;;;0.10;0.10;;;22.70;99.90;25.50;101447.00;;;;5024066;28;20688;-66
2023/07/20 12:52:14;;;;;;;0.10;0.10;;;22.70;99.90;26.50;101433.00;;;;5017341;28;20269;-66
2023/07/20 12:54:43;;;;;;;0.10;0.10;;;23.00;99.90;26.10;101428.00;;;;5031264;28;20201;-66
2023/07/20 12:57:33;;;;;;;0.10;0.10;;;23.00;99.90;27.10;101432.00;;;;5032016;28;20202;-67
2023/07/20 13:00:17;;;;;;;0.10;0.10;;;23.30;99.90;26.90;101445.00;;;;5023955;28;20194;-67
2023/07/20 13:03:16;;;;;;;1.17;1.17;;;23.20;99.90;26.70;101441.00;;;;5012160;28;20219;-67
2023/07/20 13:06:31;;;;;;;1.08;0.80;;;23.60;99.90;25.50;101455.00;;;;5021674;28;20191;-67
2023/07/20 13:09:20;;;;;;;0.10;0.10;;;23.10;99.90;25.90;101451.00;;;;5021793;28;20191;-67
2023/07/20 13:12:06;;;;;;;0.10;0.10;;;22.70;99.90;26.80;101398.00;;;;5117422;27;20199;-67
2023/07/20 13:15:05;;;;;;;0.40;0.40;;;23.20;99.90;26.00;101404.00;;;;5091554;28;20183;-67
2023/07/20 13:18:26;;;;;;;0.73;0.73;;;23.00;99.90;26.80;101419.00;;;;5110661;27;20270;-67
2023/07/20 13:21:35;;;;;;;0.10;0.10;;;23.40;99.90;25.80;101448.00;;;;5104875;28;20188;-67
2023/07/20 13:24:30;;;;;;;0.10;0.10;;;23.40;99.90;24.60;101445.00;;;;5109792;27;20183;-67
2023/07/20 13:27:30;;;;;;;1.40;1.30;;;22.70;99.90;25.20;101443.00;;;;5117317;27;20234;-67
2023/07/20 13:30:44;;;;;;;0.17;0.17;;;22.50;99.90;26.30;101431.00;;;;5114068;28;20206;-67
2023/07/20 13:34:11;;;;;;;0.10;0.10;;;22.80;99.90;26.80;101405.00;;;;5090428;27;20204;-67
2023/07/20 13:37:07;;;;;;;0.10;0.10;;;23.40;99.90;28.20;101394.00;;;;5102237;28;20708;-67
2023/07/20 13:40:30;;;;;;;0.28;0.28;;;24.40;99.90;28.10;101397.00;;;;5108588;28;20172;-67
2023/07/20 13:43:37;;;;;;;0.10;0.10;;;24.60;99.90;27.80;101408.00;;;;5118014;27;20212;-67
2023/07/20 13:46:58;;;;;;;0.10;0.10;;;24.80;99.90;29.00;101391.00;;;;5113262;28;20188;-67
2023/07/20 13:50:14;;;;;;;0.10;0.10;;;25.00;99.90;29.00;101404.00;;;;5112500;28;20186;-67
2023/07/20 13:52:43;;;;;;;0.80;0.80;;;25.30;99.90;27.20;101443.00;;;;5111349;27;20198;-67
2023/07/20 13:55:17;;;;;;;0.40;0.40;;;24.90;99.90;25.50;101446.00;;;;5131562;27;20175;-66
2023/07/20 13:57:47;;;;;;;0.28;0.28;;;23.70;99.90;25.20;101424.00;;;;5102233;28;20207;-67
2023/07/20 14:00:16;;;;;;;0.47;0.40;;;22.70;99.90;24.70;101418.00;;;;5117312;27;20187;-68
2023/07/20 14:02:42;;;;;;;0.10;0.10;;;22.40;99.90;25.80;101410.00;;;;5106528;28;20195;-70
2023/07/20 14:05:11;;;;;;;0.10;0.10;;;22.60;99.90;25.80;101384.00;;;;5112026;28;20180;-67
2023/07/20 14:07:37;;;;;;;0.20;0.20;;;23.00;99.90;25.70;101411.00;;;;5096216;27;20192;-67
2023/07/20 14:10:06;;;;;;;0.10;0.10;;;23.10;99.90;27.30;101403.00;;;;5093252;28;20176;-68
2023/07/20 14:12:36;;;;;;;0.52;0.52;;;23.60;99.90;27.50;101384.00;;;;5117512;28;20212;-70
2023/07/20 14:15:06;;;;;;;0.60;0.60;;;23.90;99.90;27.80;101383.00;;;;5123756;27;20163;-67
2023/07/20 14:17:34;;;;;;;0.10;0.10;;;24.30;99.90;26.10;101378.00;;;;5093196;28;20654;-68
2023/07/20 14:20:00;;;;;;;0.20;0.20;;;23.90;99.90;25.40;101408.00;;;;5095483;28;20534;-68
2023/07/20 14:22:26;;;;;;;2.45;1.02;;;23.30;99.90;25.40;101379.00;;;;5119527;27;20184;-69
2023/07/20 14:25:10;;;;;;;0.50;0.50;;;22.90;99.90;25.70;101411.00;;;;5088698;28;20188;-67
2023/07/20 14:27:38;;;;;;;0.30;0.30;;;23.00;99.90;25.00;101419.00;;;;5099337;28;20176;-68
2023/07/20 14:30:08;;;;;;;0.88;0.82;;;22.60;99.90;25.70;101409.00;;;;5102953;28;20261;-66
2023/07/20 14:32:42;;;;;;;0.63;0.63;;;22.60;99.90;25.00;101420.00;;;;5119380;28;20227;-68
2023/07/20 14:35:11;;;;;;;0.10;0.10;;;22.30;99.90;25.80;101391.00;;;;5097832;28;20178;-66
2023/07/20 14:37:36;;;;;;;0.10;0.10;;;22.50;99.90;26.50;101379.00;;;;5105769;28;20182;-67
2023/07/20 14:40:05;;;;;;;0.80;0.80;;;23.00;99.90;26.70;101366.00;;;;5114915;28;20184;-68
2023/07/20 14:42:32;;;;;;;0.10;0.10;;;23.30;99.90;26.20;101392.00;;;;5102024;28;21226;-67
2023/07/20 14:45:01;;;;;;;2.65;1.38;;;23.10;99.90;25.50;101413.00;;;;5094380;28;20537;-71
2023/07/20 14:47:32;;;;;;;0.10;0.10;;;22.90;99.90;26.20;101401.00;;;;5098407;28;20188;-66
2023/07/20 14:49:58;;;;;;;0.10;0.10;;;22.90;99.90;26.20;101403.00;;;;5123908;28;20266;-71
2023/07/20 14:52:34;;;;;;;0.10;0.10;;;22.90;99.90;25.10;101421.00;;;;5094247;28;20203;-66
2023/07/20 14:55:00;;;;;;;0.85;0.52;;;22.70;99.90;24.50;101428.00;;;;5132103;28;20248;-65
2023/07/20 14:57:31;;;;;;;0.20;0.20;;;22.20;99.90;24.90;101410.00;;;;5102511;28;20183;-68
2023/07/20 15:00:10;;;;;;;0.10;0.10;;;22.00;99.90;24.90;101415.00;;;;5098406;28;20576;-66
2023/07/20 15:02:44;;;;;;;0.10;0.10;;;21.90;99.90;24.70;101433.00;;;;5096278;28;20202;-66
2023/07/20 15:05:26;;;;;;;2.53;0.88;;;21.80;99.90;24.80;101424.00;;;;5109714;28;20187;-68
2023/07/20 15:07:53;;;;;;;0.10;0.10;;;21.80;99.90;24.70;101438.00;;;;5105417;28;20656;-64
2023/07/20 15:10:20;;;;;;;0.30;0.30;;;21.70;99.90;24.60;101415.00;;;;5113518;28;20184;-63
2023/07/20 15:12:45;;;;;;;0.10;0.10;;;21.60;99.90;25.20;101443.00;;;;5106757;28;20192;-66
2023/07/20 15:15:37;;;;;;;0.10;0.10;;;21.80;99.90;25.40;101436.00;;;;5093426;28;20259;-68
2023/07/20 15:18:29;;;;;;;0.10;0.10;;;22.00;99.90;25.50;101433.00;;;;5092337;28;20215;-66
2023/07/20 15:21:18;;;;;;;0.10;0.10;;;22.10;99.90;25.00;101406.00;;;;5073443;27;20184;-68
2023/07/20 15:24:12;;;;;;;0.10;0.10;;;22.00;99.90;24.60;101327.00;;;;5114870;28;20202;-68
2023/07/20 15:27:10;;;;;;;0.20;0.20;;;21.70;99.90;24.50;101328.00;;;;5093798;27;20207;-69
2023/07/20 15:30:05;;;;;;;0.10;0.10;;;21.70;99.90;24.00;101273.00;;;;5081408;27;20196;-68
2023/07/20 15:33:06;;;;;;;0.10;0.10;;;21.30;99.90;24.00;101286.00;;;;5099220;28;20262;-69
2023/07/20 15:35:58;;;;;;;0.10;0.10;;;21.10;99.90;24.30;101279.00;;;;5101593;28;20539;-69
2023/07/20 15:38:47;;;;;;;0.17;0.17;;;21.30;99.90;24.60;101292.00;;;;5011656;28;20215;-69
2023/07/20 15:41:54;;;;;;;0.10;0.10;;;21.40;99.90;24.60;101300.00;;;;5120349;27;20195;-69
2023/07/20 15:44:52;;;;;;;0.10;0.10;;;21.50;99.90;24.80;101306.00;;;;5098062;28;20200;-69
2023/07/20 15:47:43;;;;;;;0.10;0.10;;;21.60;99.90;23.70;101295.00;;;;5121202;27;20228;-69
2023/07/20 15:50:51;;;;;;;0.10;0.10;;;21.30;99.90;22.00;101273.00;;;;5059602;27;20191;-68
2023/07/20 15:54:00;;;;;;;0.20;0.20;;;20.40;99.90;22.50;101291.00;;;;5096610;28;20231;-68
2023/07/20 15:56:56;;;;;;;0.40;0.40;;;20.40;99.90;22.10;101250.00;;;;5102202;27;20193;-69
2023/07/20 15:59:48;;;;;;;0.22;0.22;;;20.00;99.90;23.30;101274.00;;;;5096305;27;20268;-68
2023/07/20 16:02:44;;;;;;;0.20;0.20;;;20.30;99.90;21.50;101261.00;;;;5033251;28;20257;-69
2023/07/20 16:05:29;;;;;;;0.10;0.10;;;19.80;99.90;22.40;101260.00;;;;5000319;28;20286;-68
2023/07/20 16:08:38;;;;;;;0.10;0.10;;;19.70;99.90;23.50;101272.00;;;;5011112;28;20231;-68
2023/07/20 16:11:36;;;;;;;0.10;0.10;;;20.20;99.90;24.30;101269.00;;;;5012373;28;20195;-68
2023/07/20 16:14:29;;;;;;;0.10;0.10;;;21.00;99.90;24.50;101263.00;;;;5024490;28;20551;-68
2023/07/20 16:17:19;;;;;;;0.15;0.15;;;21.30;99.90;24.90;101244.00;;;;5025211;28;20193;-68
2023/07/20 16:20:10;;;;;;;0.10;0.10;;;21.60;99.90;24.90;101243.00;;;;5022470;28;20249;-68
2023/07/20 16:23:00;;;;;;;0.10;0.10;;;21.70;99.90;24.50;101259.00;;;;5015699;28;20613;-68
2023/07/20 16:25:55;;;;;;;0.10;0.10;;;21.80;99.90;25.10;101259.00;;;;5017014;28;20204;-69
2023/07/20 16:28:52;;;;;;;0.10;0.10;;;22.00;99.90;25.60;101255.00;;;;5116104;27;20192;-65
2023/07/20 16:31:45;;;;;;;0.10;0.10;;;22.30;99.90;25.70;101258.00;;;;5118089;27;20208;-63
2023/07/20 16:34:36;;;;;;;0.17;0.17;;;22.50;99.90;25.10;101239.00;;;;5014723;28;20672;-65
2023/07/20 16:37:05;;;;;;;0.10;0.10;;;22.30;99.90;24.80;101237.00;;;;5016440;28;20198;-66
2023/07/20 16:40:15;;;;;;;0.13;0.13;;;22.10;99.90;24.60;101219.00;;;;5031367;28;20194;-67
2023/07/20 16:43:06;;;;;;;0.20;0.20;;;21.70;99.90;24.20;101209.00;;;;5004725;28;20190;-64
2023/07/20 16:45:39;;;;;;;0.15;0.15;;;21.50;99.90;23.30;101195.00;;;;5087270;27;20200;-64
2023/07/20 16:48:09;;;;;;;0.38;0.38;;;21.40;99.90;22.10;101184.00;;;;5130513;27;20180;-64
2023/07/20 16:50:52;;;;;;;0.25;0.25;;;20.90;99.90;22.40;101162.00;;;;5123303;27;20641;-64
2023/07/20 16:53:53;;;;;;;0.10;0.10;;;20.50;99.90;23.20;101216.00;;;;5100504;27;20218;-64
2023/07/20 16:56:54;;;;;;;0.10;0.10;;;21.00;99.90;23.90;101204.00;;;;5099380;28;20225;-64
2023/07/20 16:59:45;;;;;;;0.10;0.10;;;21.00;99.90;24.70;101217.00;;;;5121428;27;20188;-64
2023/07/20 17:02:30;;;;;;;1.13;1.08;;;21.40;99.90;24.50;101219.00;;;;5123205;27;20196;-64
2023/07/20 17:05:24;;;;;;;0.10;0.10;;;21.60;99.90;24.10;101210.00;;;;5119923;27;20743;-64
2023/07/20 17:08:28;;;;;;;0.10;0.10;;;21.50;99.90;24.60;101212.00;;;;5119447;27;20192;-64
2023/07/20 17:11:03;;;;;;;0.10;0.10;;;21.60;99.90;25.20;101223.00;;;;5118955;27;20176;-64
2023/07/20 17:13:52;;;;;;;0.10;0.10;;;21.80;99.90;25.40;101236.00;;;;5130814;27;20225;-64
2023/07/20 17:16:21;;;;;;;0.10;0.10;;;22.00;99.90;25.60;101250.00;;;;5105342;27;20702;-64
2023/07/20 17:19:11;;;;;;;0.10;0.10;;;22.10;99.90;25.30;101257.00;;;;5128532;27;20180;-64
2023/07/20 17:21:59;;;;;;;0.88;0.65;;;22.10;99.90;25.50;101257.00;;;;5128940;27;20669;-65
2023/07/20 17:24:26;;;;;;;0.20;0.20;;;22.00;99.90;23.90;101276.00;;;;5093556;27;20203;-64
2023/07/20 17:26:52;;;;;;;0.10;0.10;;;21.80;99.90;24.50;101248.00;;;;5123764;27;20206;-64
2023/07/20 17:29:18;;;;;;;0.10;0.10;;;21.30;99.90;24.50;101272.00;;;;5100907;27;20188;-64
2023/07/20 17:32:42;;;;;;;0.13;0.13;;;21.60;99.90;24.50;101246.00;;;;5120123;27;20303;-64
2023/07/20 17:35:46;;;;;;;0.52;0.52;;;21.40;99.90;23.70;101266.00;;;;5102780;28;20183;-64
2023/07/20 17:38:12;;;;;;;0.10;0.10;;;21.40;99.90;23.60;101250.00;;;;5102898;27;20185;-63
2023/07/20 17:41:09;;;;;;;0.10;0.10;;;21.10;99.90;24.40;101229.00;;;;5114843;27;20192;-64
2023/07/20 17:43:55;;;;;;;0.10;0.10;;;21.10;99.90;24.80;101235.00;;;;5122730;27;20184;-65
2023/07/20 17:47:02;;;;;;;0.20;0.20;;;21.30;99.90;24.10;101237.00;;;;5117186;27;20184;-65
2023/07/20 17:50:03;;;;;;;0.10;0.10;;;21.40;99.90;23.20;101221.00;;;;5106288;27;20243;-66
2023/07/20 17:52:47;;;;;;;0.10;0.10;;;21.00;99.90;23.60;101191.00;;;;5118748;27;20675;-65
2023/07/20 17:55:50;;;;;;;0.10;0.10;;;20.80;99.90;24.60;101195.00;;;;5117583;27;20223;-66
2023/07/20 18:01:02;;;;;;;0.20;0.20;;;21.40;99.90;25.40;101222.00;;;;5119408;27;20182;-65
2023/07/20 18:03:28;;;;;;;0.10;0.10;;;21.80;99.90;25.40;101206.00;;;;5120918;27;20187;-65
2023/07/20 18:06:13;;;;;;;0.10;0.10;;;21.90;99.90;25.40;101231.00;;;;5120774;27;20178;-65
2023/07/20 18:08:40;;;;;;;0.10;0.10;;;21.90;99.90;25.30;101242.00;;;;5121676;27;20196;-65
2023/07/20 18:11:10;;;;;;;0.10;0.10;;;21.90;99.90;25.40;101253.00;;;;5104887;27;20180;-65
2023/07/20 18:13:36;;;;;;;0.10;0.10;;;21.90;99.90;25.50;101234.00;;;;5087006;27;20211;-65
2023/07/20 18:16:02;;;;;;;0.20;0.20;;;21.90;99.90;25.50;101243.00;;;;5104198;27;20180;-65
2023/07/20 18:18:29;;;;;;;0.20;0.20;;;21.90;99.90;25.90;101255.00;;;;5120993;27;20201;-65
2023/07/20 18:21:06;;;;;;;0.17;0.17;;;22.20;99.90;25.60;101265.00;;;;5121193;27;20191;-65
2023/07/20 18:23:47;;;;;;;0.13;0.13;;;22.30;99.90;25.30;101264.00;;;;5117308;28;20558;-65
2023/07/20 18:26:19;;;;;;;0.20;0.20;;;22.00;99.90;25.60;101258.00;;;;5122663;27;20168;-65
2023/07/20 18:29:01;;;;;;;0.10;0.10;;;22.10;99.90;25.30;101257.00;;;;5121123;28;20232;-65
2023/07/20 18:31:27;;;;;;;0.10;0.10;;;22.10;99.90;24.60;101258.00;;;;5103961;28;20187;-65
2023/07/20 18:33:54;;;;;;;0.10;0.10;;;21.70;99.90;25.40;101251.00;;;;5118280;28;20518;-65
2023/07/20 18:36:20;;;;;;;0.20;0.20;;;21.80;99.90;25.00;101244.00;;;;5123299;28;20191;-65
2023/07/20 18:38:46;;;;;;;0.10;0.10;;;21.70;99.90;25.50;101249.00;;;;5104444;28;20201;-65
2023/07/20 18:41:12;;;;;;;0.20;0.20;;;21.90;99.90;25.70;101253.00;;;;5121671;28;20293;-65
2023/07/20 18:44:01;;;;;;;0.10;0.10;;;22.10;99.90;25.40;101257.00;;;;5104074;28;20258;-65
2023/07/20 18:46:27;;;;;;;0.20;0.20;;;22.00;99.90;25.60;101261.00;;;;5120309;28;20183;-65
2023/07/20 18:48:53;;;;;;;0.10;0.10;;;22.10;99.90;24.70;101265.00;;;;5122624;28;20213;-65
2023/07/20 18:51:22;;;;;;;0.20;0.20;;;21.80;99.90;24.70;101261.00;;;;5120214;28;20271;-65
2023/07/20 18:53:48;;;;;;;0.20;0.20;;;21.60;99.90;24.40;101251.00;;;;5118081;27;20559;-65
2023/07/20 18:56:14;;;;;;;0.20;0.20;;;21.30;99.90;24.50;101217.00;;;;5122404;27;20188;-65
2023/07/20 18:58:40;;;;;;;0.13;0.13;;;21.30;99.90;24.80;101217.00;;;;5090046;27;20195;-65
2023/07/20 19:01:06;;;;;;;0.20;0.20;;;21.40;99.90;24.30;101247.00;;;;5096632;27;20641;-65
2023/07/20 19:03:31;;;;;;;0.20;0.20;;;21.40;99.90;24.20;101240.00;;;;5105262;27;20188;-65
2023/07/20 19:06:04;;;;;;;0.20;0.20;;;21.20;99.90;24.30;101242.00;;;;5122474;27;20191;-65
2023/07/20 19:08:54;;;;;;;0.20;0.20;;;21.20;99.90;24.50;101205.00;;;;5105665;27;20187;-65